Time;durP1;ratioP1;P1;durP2;ratioP2;P2;SDS_P1;SDS_P2;PMS_P1;PMS_P2;Temp;Humidity;BMP_temperature;BMP_pressure;BME280_temperature;BME280_humidity;BME280_pressure;Samples;Min_cycle;Max_cycle;Signal;HPM_P1;HPM_P2
2023/03/15 00:02:26;;;;;;;5.97;2.40;;;;;;;1.13;100.00;101041.09;5265319;28;20036;-68
2023/03/15 00:04:58;;;;;;;3.67;1.93;;;;;;;1.15;100.00;101042.00;5265073;28;20064;-68
2023/03/15 00:07:30;;;;;;;9.50;2.67;;;;;;;1.15;100.00;101047.13;5265098;28;20040;-67
2023/03/15 00:10:01;;;;;;;4.47;2.22;;;;;;;1.18;100.00;101042.09;5265135;28;20380;-67
2023/03/15 00:12:33;;;;;;;9.23;2.70;;;;;;;1.21;100.00;101049.03;5264211;28;20033;-67
2023/03/15 00:15:05;;;;;;;6.37;2.17;;;;;;;1.20;100.00;101037.00;5265026;28;20033;-67
2023/03/15 00:17:36;;;;;;;7.40;2.92;;;;;;;1.24;100.00;101038.81;5264988;28;20032;-67
2023/03/15 00:20:09;;;;;;;3.80;2.50;;;;;;;1.31;100.00;101048.47;5264783;28;20036;-67
2023/03/15 00:22:41;;;;;;;7.03;3.00;;;;;;;1.28;100.00;101048.38;5264527;28;20103;-67
2023/03/15 00:25:12;;;;;;;5.17;2.43;;;;;;;1.32;100.00;101049.31;5265168;28;20025;-67
2023/03/15 00:27:43;;;;;;;6.53;2.70;;;;;;;1.35;100.00;101042.56;5264536;28;20033;-67
2023/03/15 00:30:15;;;;;;;5.83;2.63;;;;;;;1.35;100.00;101050.28;5264745;28;20408;-67
2023/03/15 00:32:47;;;;;;;5.27;2.60;;;;;;;1.31;100.00;101051.03;5263361;28;20057;-67
2023/03/15 00:35:18;;;;;;;8.77;2.43;;;;;;;1.40;100.00;101050.41;5263478;28;20045;-67
2023/03/15 00:37:55;;;;;;;5.80;2.37;;;;;;;1.40;100.00;101060.69;5264345;28;20040;-67
2023/03/15 00:40:26;;;;;;;6.25;2.75;;;;;;;1.41;100.00;101055.59;5263565;28;20037;-67
2023/03/15 00:42:58;;;;;;;7.20;2.63;;;;;;;1.38;100.00;101047.81;5264154;28;20100;-67
2023/03/15 00:45:29;;;;;;;8.30;2.53;;;;;;;1.38;100.00;101060.66;5264448;28;20358;-67
2023/03/15 00:48:00;;;;;;;8.00;2.37;;;;;;;1.41;100.00;101055.59;5263981;28;20032;-67
2023/03/15 00:50:32;;;;;;;5.33;2.57;;;;;;;1.40;100.00;101045.28;5264029;28;20087;-66
2023/03/15 00:53:03;;;;;;;6.00;2.83;;;;;;;1.47;100.00;101044.66;5263703;28;20055;-66
2023/03/15 00:55:34;;;;;;;8.27;2.80;;;;;;;1.48;100.00;101042.94;5263988;28;20436;-66
2023/03/15 00:58:06;;;;;;;7.10;2.43;;;;;;;1.47;100.00;101048.91;5264123;28;20049;-69
2023/03/15 01:00:37;;;;;;;7.47;2.77;;;;;;;1.44;100.00;101047.13;5264273;28;20037;-66
2023/03/15 01:03:08;;;;;;;7.00;2.90;;;;;;;1.45;100.00;101036.88;5263857;28;20068;-66
2023/03/15 01:05:40;;;;;;;8.00;3.60;;;;;;;1.48;100.00;101045.50;5263696;28;20025;-66
2023/03/15 01:08:11;;;;;;;7.30;3.10;;;;;;;1.54;100.00;101048.25;5263740;28;20507;-66
2023/03/15 01:10:43;;;;;;;7.93;3.40;;;;;;;1.53;100.00;101051.63;5263399;28;20067;-68
2023/03/15 01:13:14;;;;;;;6.87;3.20;;;;;;;1.54;100.00;101050.81;5263328;28;20037;-66
2023/03/15 01:15:46;;;;;;;16.53;4.30;;;;;;;1.58;100.00;101060.38;5263539;28;20131;-66
2023/03/15 01:18:17;;;;;;;15.07;6.22;;;;;;;1.60;100.00;101045.84;5263664;28;20029;-66
2023/03/15 01:20:49;;;;;;;14.23;6.23;;;;;;;1.63;100.00;101054.50;5263233;28;20036;-66
2023/03/15 01:23:21;;;;;;;19.90;6.13;;;;;;;1.67;100.00;101062.31;5262057;28;20033;-67
2023/03/15 01:25:52;;;;;;;14.87;6.90;;;;;;;1.62;100.00;101064.75;5263367;28;20035;-67
2023/03/15 01:28:23;;;;;;;15.70;7.83;;;;;;;1.64;100.00;101063.09;5263264;28;20119;-67
2023/03/15 01:30:55;;;;;;;18.43;10.10;;;;;;;1.60;100.00;101071.56;5262942;28;20040;-66
2023/03/15 01:41:42;;;;;;;15.70;12.90;;;;;;;1.59;100.00;101085.22;5533013;23;20419;-67
2023/03/15 01:44:18;;;;;;;18.53;13.73;;;;;;;1.54;100.00;101081.66;5261337;28;20037;-68
2023/03/15 01:46:50;;;;;;;16.85;14.45;;;;;;;1.59;100.00;101088.66;5262511;28;20082;-66
2023/03/15 01:49:26;;;;;;;18.00;16.07;;;;;;;1.52;100.00;101084.19;5262596;28;20029;-66
2023/03/15 01:52:04;;;;;;;17.85;15.32;;;;;;;1.55;100.00;101089.41;5262884;28;20029;-66
2023/03/15 01:55:09;;;;;;;18.58;15.27;;;;;;;1.55;100.00;101086.84;5262892;28;20029;-66
2023/03/15 01:57:47;;;;;;;19.83;16.67;;;;;;;1.48;100.00;101090.03;5252030;28;20485;-66
2023/03/15 02:00:20;;;;;;;19.88;16.50;;;;;;;1.42;100.00;101092.44;5262531;28;20037;-67
2023/03/15 02:02:56;;;;;;;22.95;18.98;;;;;;;1.39;100.00;101103.50;5263085;28;20060;-66
2023/03/15 02:05:36;;;;;;;21.10;17.33;;;;;;;1.44;100.00;101101.06;5262541;28;20412;-66
2023/03/15 02:08:08;;;;;;;21.95;18.98;;;;;;;1.40;100.00;101104.34;5262949;28;20025;-66
2023/03/15 02:10:43;;;;;;;22.60;20.33;;;;;;;1.39;100.00;101108.63;5245310;28;20043;-69
2023/03/15 02:13:18;;;;;;;25.20;22.35;;;;;;;1.39;100.00;101121.47;5262861;28;20036;-66
2023/03/15 02:15:52;;;;;;;24.02;21.25;;;;;;;1.38;100.00;101122.28;5261863;28;20448;-67
2023/03/15 02:18:23;;;;;;;22.67;20.23;;;;;;;1.40;100.00;101119.78;5263073;28;20032;-67
2023/03/15 02:21:01;;;;;;;24.33;21.60;;;;;;;1.35;100.00;101127.34;5262960;28;20033;-67
2023/03/15 02:23:33;;;;;;;26.70;19.98;;;;;;;1.36;100.00;101129.09;5262401;28;20032;-67
2023/03/15 02:26:16;;;;;;;25.80;21.65;;;;;;;1.31;100.00;101135.78;5262343;28;20024;-67
2023/03/15 02:28:48;;;;;;;24.98;21.60;;;;;;;1.28;100.00;101122.84;5262320;28;20072;-67
2023/03/15 02:31:20;;;;;;;28.67;23.70;;;;;;;1.27;100.00;101129.69;5262861;28;20120;-67
2023/03/15 02:33:54;;;;;;;26.92;21.88;;;;;;;1.31;100.00;101128.09;5262162;28;20038;-67
2023/03/15 02:36:28;;;;;;;27.05;22.35;;;;;;;1.36;100.00;101131.66;5262418;28;20029;-67
2023/03/15 02:39:00;;;;;;;27.13;24.33;;;;;;;1.29;100.00;101129.75;5262341;28;20036;-67
2023/03/15 02:41:41;;;;;;;29.00;24.20;;;;;;;1.33;100.00;101125.56;5262762;28;20048;-67
2023/03/15 02:44:22;;;;;;;22.38;19.98;;;;;;;1.36;100.00;101133.38;5262324;28;20457;-67
2023/03/15 02:46:58;;;;;;;22.77;17.63;;;;;;;1.35;100.00;101136.75;5262900;28;20123;-67
2023/03/15 02:49:34;;;;;;;24.63;18.27;;;;;;;1.27;100.00;101137.41;5262473;28;20032;-67
2023/03/15 02:52:06;;;;;;;20.35;17.50;;;;;;;1.28;100.00;101139.13;5262490;28;20025;-67
2023/03/15 02:54:38;;;;;;;22.27;17.53;;;;;;;1.21;100.00;101150.03;5244201;28;20048;-67
2023/03/15 02:57:11;;;;;;;19.40;15.93;;;;;;;1.15;100.00;101149.84;5262342;28;20029;-66
2023/03/15 02:59:42;;;;;;;17.95;15.65;;;;;;;1.07;100.00;101152.16;5262410;28;20041;-66
2023/03/15 03:02:14;;;;;;;17.83;14.73;;;;;;;1.03;100.00;101146.88;5261762;28;20087;-66
2023/03/15 03:04:45;;;;;;;15.70;14.07;;;;;;;0.96;100.00;101150.94;5262181;28;20117;-66
2023/03/15 03:07:17;;;;;;;18.57;15.57;;;;;;;0.99;100.00;101163.03;5262654;28;20059;-66
2023/03/15 03:09:49;;;;;;;17.88;16.05;;;;;;;0.88;100.00;101170.38;5261961;28;20029;-66
2023/03/15 03:12:20;;;;;;;20.20;16.03;;;;;;;0.87;100.00;101168.59;5265431;28;20039;-66
2023/03/15 03:14:51;;;;;;;18.80;16.43;;;;;;;0.86;100.00;101178.00;5265995;28;20064;-66
2023/03/15 03:17:23;;;;;;;21.90;17.33;;;;;;;0.84;100.00;101184.81;5265610;28;20036;-66
2023/03/15 03:19:55;;;;;;;18.03;15.90;;;;;;;0.88;100.00;101180.63;5265941;28;20028;-66
2023/03/15 03:22:26;;;;;;;19.00;16.97;;;;;;;0.81;100.00;101192.41;5265816;28;20064;-66
2023/03/15 03:24:58;;;;;;;19.67;16.97;;;;;;;0.81;100.00;101189.81;5266309;28;20107;-67
2023/03/15 03:27:29;;;;;;;18.47;16.57;;;;;;;0.73;100.00;101199.81;5265436;28;20476;-66
2023/03/15 03:30:03;;;;;;;19.80;17.33;;;;;;;0.67;100.00;101198.75;5266353;28;20364;-67
2023/03/15 03:32:34;;;;;;;19.15;17.25;;;;;;;0.60;100.00;101202.81;5247747;28;20087;-66
2023/03/15 03:35:07;;;;;;;18.53;16.63;;;;;;;0.52;100.00;101204.22;5265631;28;20029;-67
2023/03/15 03:37:38;;;;;;;19.17;16.30;;;;;;;0.45;100.00;101197.13;5247666;28;20037;-67
2023/03/15 03:40:11;;;;;;;19.20;17.13;;;;;;;0.40;100.00;101203.78;5265499;28;20087;-66
2023/03/15 03:42:42;;;;;;;21.58;17.23;;;;;;;0.36;100.00;101215.63;5264878;28;20127;-66
2023/03/15 03:45:13;;;;;;;23.67;18.70;;;;;;;0.27;100.00;101228.13;5266003;28;20035;-66
2023/03/15 03:47:45;;;;;;;22.13;17.63;;;;;;;0.25;100.00;101232.34;5265632;28;20041;-66
2023/03/15 03:50:16;;;;;;;21.07;17.70;;;;;;;0.21;100.00;101231.34;5265258;28;20072;-66
2023/03/15 03:52:48;;;;;;;19.03;16.93;;;;;;;0.13;100.00;101225.03;5265298;28;20036;-67
2023/03/15 03:55:23;;;;;;;19.30;17.30;;;;;;;0.09;100.00;101225.75;5264937;28;20033;-66
2023/03/15 03:57:55;;;;;;;20.05;17.15;;;;;;;0.02;100.00;101228.91;5265363;28;20429;-66
2023/03/15 04:00:26;;;;;;;22.60;17.80;;;;;;;-0.01;100.00;101230.53;5264828;28;20073;-67
2023/03/15 04:02:58;;;;;;;18.73;16.70;;;;;;;-0.04;100.00;101235.53;5264964;28;20468;-67
2023/03/15 04:05:29;;;;;;;19.50;16.50;;;;;;;-0.05;100.00;101245.75;5265229;28;20467;-66
2023/03/15 04:08:01;;;;;;;20.37;16.73;;;;;;;-0.10;100.00;101247.25;5264706;28;20060;-66
2023/03/15 04:10:33;;;;;;;20.53;18.03;;;;;;;-0.10;100.00;101252.38;5264841;28;20112;-66
2023/03/15 04:13:05;;;;;;;;;;;;;;;-0.21;100.00;101264.78;5265197;28;20025;-69
2023/03/15 04:15:36;;;;;;;21.75;16.48;;;;;;;-0.22;100.00;101258.78;5264861;28;19913;-66
2023/03/15 04:18:07;;;;;;;21.70;17.10;;;;;;;-0.20;100.00;101263.97;5264734;28;20506;-67
2023/03/15 04:20:45;;;;;;;22.43;17.97;;;;;;;-0.26;100.00;101261.16;5264724;28;20119;-67
2023/03/15 04:23:18;;;;;;;22.23;18.10;;;;;;;-0.27;100.00;101277.38;5264459;28;20029;-67
2023/03/15 04:25:51;;;;;;;21.98;18.48;;;;;;;-0.31;100.00;101278.91;5264604;28;20071;-67
2023/03/15 04:28:22;;;;;;;21.27;17.42;;;;;;;-0.34;100.00;101280.50;5264182;28;20380;-67
2023/03/15 04:30:57;;;;;;;21.80;18.10;;;;;;;-0.35;100.00;101281.28;5264705;28;20025;-67
2023/03/15 04:33:31;;;;;;;26.92;18.35;;;;;;;-0.40;100.00;101288.81;5265266;28;20435;-67
2023/03/15 04:36:02;;;;;;;;;;;;;;;-0.49;100.00;101291.00;5265292;28;20425;-67
2023/03/15 04:38:34;;;;;;;21.52;17.27;;;;;;;-0.41;100.00;101290.50;5264315;28;19939;-67
2023/03/15 04:41:09;;;;;;;21.33;17.33;;;;;;;-0.49;100.00;101285.88;5263999;28;20037;-67
2023/03/15 04:43:41;;;;;;;19.05;16.55;;;;;;;-0.52;100.00;101294.31;5263923;28;20116;-67
2023/03/15 04:46:12;;;;;;;24.43;18.33;;;;;;;-0.57;100.00;101301.78;5264257;28;20527;-67
2023/03/15 04:48:44;;;;;;;22.90;18.00;;;;;;;-0.60;100.00;101298.25;5264419;28;20024;-67
2023/03/15 04:51:15;;;;;;;29.57;18.57;;;;;;;-0.66;100.00;101305.66;5264543;28;20029;-67
2023/03/15 04:53:46;;;;;;;22.60;18.10;;;;;;;-0.67;100.00;101309.06;5264150;28;20113;-67
2023/03/15 04:56:18;;;;;;;23.03;17.97;;;;;;;-0.66;100.00;101308.22;5264473;28;20029;-67
2023/03/15 04:58:49;;;;;;;24.10;18.20;;;;;;;-0.67;100.00;101307.38;5263924;28;20032;-67
2023/03/15 05:01:28;;;;;;;22.30;17.97;;;;;;;-0.70;100.00;101312.34;5263843;28;20102;-67
2023/03/15 05:04:00;;;;;;;25.83;18.95;;;;;;;-0.71;100.00;101314.84;5264679;28;20063;-67
2023/03/15 05:06:31;;;;;;;25.57;18.57;;;;;;;-0.74;100.00;101315.63;5263799;28;20021;-67
2023/03/15 05:09:03;;;;;;;24.23;17.50;;;;;;;-0.75;100.00;101321.53;5264010;28;20041;-67
2023/03/15 05:11:34;;;;;;;22.83;17.63;;;;;;;-0.78;100.00;101317.16;5262380;28;20103;-67
2023/03/15 05:14:06;;;;;;;23.20;17.87;;;;;;;-0.81;100.00;101327.25;5263688;28;20025;-67
2023/03/15 05:16:37;;;;;;;24.03;17.80;;;;;;;-0.82;100.00;101330.66;5263618;28;20044;-67
2023/03/15 05:19:08;;;;;;;23.83;17.47;;;;;;;-0.84;100.00;101337.38;5263313;28;20029;-67
2023/03/15 05:21:40;;;;;;;22.70;16.93;;;;;;;-0.87;100.00;101333.81;5263784;28;20087;-67
2023/03/15 05:24:11;;;;;;;24.93;17.37;;;;;;;-0.89;100.00;101343.13;5263953;28;20055;-67
2023/03/15 05:26:45;;;;;;;21.63;17.00;;;;;;;-0.86;100.00;101336.44;5263410;28;20365;-67
2023/03/15 05:29:16;;;;;;;22.45;17.20;;;;;;;-0.89;100.00;101343.97;5263253;28;20325;-67
2023/03/15 05:31:48;;;;;;;27.73;17.97;;;;;;;-0.93;100.00;101357.47;5245720;28;20036;-67
2023/03/15 05:34:22;;;;;;;22.77;18.33;;;;;;;-0.98;100.00;101347.03;5262951;28;20098;-67
2023/03/15 05:36:54;;;;;;;24.80;17.60;;;;;;;-0.96;100.00;101347.09;5246227;28;20037;-67
2023/03/15 05:39:25;;;;;;;24.70;17.73;;;;;;;-1.00;100.00;101353.78;5263453;28;20036;-67
2023/03/15 05:41:57;;;;;;;23.00;17.77;;;;;;;-1.03;100.00;101362.97;5262806;28;20056;-67
2023/03/15 05:44:28;;;;;;;22.87;16.67;;;;;;;-1.07;100.00;101359.41;5245638;28;20115;-67
2023/03/15 05:46:59;;;;;;;23.80;16.77;;;;;;;-1.02;100.00;101355.38;5262791;28;20032;-67
2023/03/15 05:49:31;;;;;;;24.23;17.80;;;;;;;-1.01;100.00;101366.50;5262649;28;20083;-67
2023/03/15 05:52:02;;;;;;;24.10;18.23;;;;;;;-1.03;100.00;101368.09;5262534;28;20026;-67
2023/03/15 05:54:33;;;;;;;25.63;19.53;;;;;;;-1.03;100.00;101371.56;5263182;28;20030;-68
2023/03/15 05:57:05;;;;;;;27.20;18.07;;;;;;;-1.01;100.00;101377.59;5262636;28;20086;-68
2023/03/15 05:59:36;;;;;;;27.10;18.37;;;;;;;-1.01;100.00;101380.16;5262445;28;20333;-68
2023/03/15 06:02:08;;;;;;;27.07;19.93;;;;;;;-1.00;100.00;101388.69;5262508;28;20073;-66
2023/03/15 06:04:40;;;;;;;27.90;19.53;;;;;;;-0.96;100.00;101394.03;5262908;28;20033;-66
2023/03/15 06:07:11;;;;;;;29.80;19.30;;;;;;;-1.00;100.00;101393.81;5262393;28;20682;-66
2023/03/15 06:09:42;;;;;;;27.23;19.13;;;;;;;-0.97;100.00;101405.06;5262324;28;20025;-67
2023/03/15 06:12:14;;;;;;;33.90;20.07;;;;;;;-0.89;100.00;101412.22;5261938;28;20099;-66
2023/03/15 06:14:45;;;;;;;29.40;20.43;;;;;;;-0.89;100.00;101407.09;5262389;28;20040;-66
2023/03/15 06:17:16;;;;;;;30.80;19.03;;;;;;;-0.85;100.00;101412.44;5244563;28;20423;-66
2023/03/15 06:19:48;;;;;;;26.97;20.27;;;;;;;-0.85;100.00;101404.75;5262244;28;20028;-66
2023/03/15 06:22:19;;;;;;;29.27;20.53;;;;;;;-0.83;100.00;101409.94;5262058;28;20032;-67
2023/03/15 06:24:50;;;;;;;30.50;20.23;;;;;;;-0.78;100.00;101422.09;5262169;28;20025;-65
2023/03/15 06:27:22;;;;;;;29.97;20.03;;;;;;;-0.68;100.00;101427.63;5262351;28;20131;-66
2023/03/15 06:29:54;;;;;;;30.93;20.67;;;;;;;-0.51;100.00;101438.63;5262008;28;20029;-66
2023/03/15 06:32:26;;;;;;;32.40;20.83;;;;;;;-0.38;100.00;101443.44;5261785;28;20040;-66
2023/03/15 06:34:57;;;;;;;31.40;21.23;;;;;;;-0.25;100.00;101443.13;5262036;28;20488;-66
2023/03/15 06:37:29;;;;;;;31.30;21.47;;;;;;;-0.15;100.00;101449.53;5262348;28;20037;-66
2023/03/15 06:40:08;;;;;;;37.97;22.93;;;;;;;-0.07;100.00;101457.53;5261931;28;20108;-66
2023/03/15 06:42:40;;;;;;;35.75;23.27;;;;;;;0.03;100.00;101456.22;5261674;28;20065;-66
2023/03/15 06:45:12;;;;;;;41.27;24.70;;;;;;;0.13;100.00;101445.50;5263777;28;20033;-66
2023/03/15 06:47:43;;;;;;;41.23;24.30;;;;;;;0.09;100.00;101459.03;5266626;28;20351;-66
2023/03/15 06:50:14;;;;;;;34.10;22.30;;;;;;;0.17;100.00;101462.78;5266377;28;20032;-67
2023/03/15 06:52:46;;;;;;;36.63;22.03;;;;;;;0.25;100.00;101468.22;5248347;28;20033;-66
2023/03/15 06:55:17;;;;;;;39.80;23.07;;;;;;;0.36;100.00;101472.97;5265696;28;20029;-65
2023/03/15 06:57:48;;;;;;;33.53;22.60;;;;;;;0.39;100.00;101482.47;5266417;28;20029;-65
2023/03/15 07:00:21;;;;;;;35.63;23.07;;;;;;;0.37;100.00;101473.81;5266271;28;20033;-65
2023/03/15 07:02:52;;;;;;;33.83;21.05;;;;;;;0.50;100.00;101481.22;5247752;28;20037;-66
2023/03/15 07:05:24;;;;;;;32.60;22.23;;;;;;;0.52;100.00;101486.41;5266049;28;20037;-66
2023/03/15 07:07:55;;;;;;;34.97;22.50;;;;;;;0.54;100.00;101493.34;5265751;28;20123;-66
2023/03/15 07:10:26;;;;;;;28.10;21.37;;;;;;;0.47;100.00;101493.06;5265718;28;20095;-66
2023/03/15 07:12:58;;;;;;;29.47;21.27;;;;;;;0.41;100.00;101498.81;5264237;28;20029;-66
2023/03/15 07:15:29;;;;;;;31.00;21.60;;;;;;;0.37;100.00;101507.19;5266048;28;20464;-66
2023/03/15 07:18:01;;;;;;;30.07;22.07;;;;;;;0.33;100.00;101508.75;5265504;28;20029;-66
2023/03/15 07:20:32;;;;;;;33.87;22.70;;;;;;;0.38;100.00;101511.50;5265425;28;20048;-66
2023/03/15 07:23:04;;;;;;;37.30;22.87;;;;;;;0.43;100.00;101524.50;5265489;28;20025;-66
2023/03/15 07:25:35;;;;;;;35.77;24.50;;;;;;;0.57;100.00;101531.06;5265701;28;20033;-66
2023/03/15 07:28:07;;;;;;;31.60;22.27;;;;;;;0.62;100.00;101532.13;5265375;28;20045;-66
2023/03/15 07:30:38;;;;;;;32.80;22.70;;;;;;;0.73;100.00;101532.56;5265421;28;20032;-66
2023/03/15 07:33:09;;;;;;;36.27;21.50;;;;;;;0.85;100.00;101538.19;5265027;28;20040;-66
2023/03/15 07:35:40;;;;;;;32.40;22.23;;;;;;;0.87;100.00;101535.66;5263964;28;20056;-66
2023/03/15 07:38:12;;;;;;;32.80;21.93;;;;;;;0.91;100.00;101543.53;5265132;28;20033;-66
2023/03/15 07:40:43;;;;;;;33.00;22.73;;;;;;;0.99;100.00;101543.84;5265113;28;20095;-66
2023/03/15 07:43:15;;;;;;;32.20;20.17;;;;;;;1.08;100.00;101540.75;5265638;28;20059;-66
2023/03/15 07:45:47;;;;;;;35.50;21.30;;;;;;;1.07;100.00;101546.72;5265366;28;20037;-66
2023/03/15 07:48:18;;;;;;;33.37;20.73;;;;;;;1.15;100.00;101558.13;5264714;28;20040;-66
2023/03/15 07:50:50;;;;;;;34.43;21.50;;;;;;;1.21;100.00;101555.81;5264950;28;20029;-66
2023/03/15 07:53:22;;;;;;;29.55;20.75;;;;;;;1.37;100.00;101564.97;5264817;28;20493;-66
2023/03/15 07:55:53;;;;;;;26.93;20.20;;;;;;;1.42;100.00;101566.00;5264867;28;20037;-66
2023/03/15 07:58:24;;;;;;;27.90;18.70;;;;;;;1.45;100.00;101572.97;5264337;28;20025;-66
2023/03/15 08:00:56;;;;;;;23.17;16.90;;;;;;;1.51;100.00;101575.75;5264822;28;20033;-66
2023/03/15 08:03:28;;;;;;;24.58;18.02;;;;;;;1.67;100.00;101584.88;5264758;28;20037;-66
2023/03/15 08:05:59;;;;;;;21.00;15.57;;;;;;;1.68;100.00;101593.50;5264694;28;20025;-66
2023/03/15 08:08:30;;;;;;;18.73;13.87;;;;;;;1.63;100.00;101590.75;5246534;28;20029;-66
2023/03/15 08:11:04;;;;;;;15.27;11.70;;;;;;;1.65;100.00;101596.81;5265204;28;20365;-66
2023/03/15 08:13:35;;;;;;;16.98;11.57;;;;;;;1.72;100.00;101605.63;5264951;28;20444;-66
2023/03/15 08:16:07;;;;;;;19.70;13.13;;;;;;;1.88;100.00;101604.50;5264584;28;20120;-66
2023/03/15 08:18:38;;;;;;;22.10;11.27;;;;;;;1.96;100.00;101605.63;5264425;28;20036;-66
2023/03/15 08:21:09;;;;;;;14.70;11.77;;;;;;;2.18;100.00;101615.00;5264439;28;20083;-66
2023/03/15 08:23:41;;;;;;;17.33;11.57;;;;;;;2.33;100.00;101619.78;5264359;28;20029;-66
2023/03/15 08:26:12;;;;;;;13.90;9.93;;;;;;;2.36;100.00;101619.88;5262987;28;20029;-66
2023/03/15 08:28:43;;;;;;;16.13;10.13;;;;;;;2.54;100.00;101627.34;5264287;28;20429;-66
2023/03/15 08:31:15;;;;;;;14.60;10.63;;;;;;;2.72;100.00;101633.13;5264125;28;20037;-66
2023/03/15 08:33:47;;;;;;;12.17;8.63;;;;;;;2.99;100.00;101639.97;5246235;28;20025;-66
2023/03/15 08:36:18;;;;;;;10.90;7.67;;;;;;;3.04;100.00;101641.03;5263031;28;20302;-66
2023/03/15 08:38:50;;;;;;;10.63;8.77;;;;;;;3.01;100.00;101632.31;5264434;28;20483;-66
2023/03/15 08:41:21;;;;;;;12.43;5.87;;;;;;;3.19;100.00;101637.16;5263843;28;20053;-66
2023/03/15 08:43:53;;;;;;;15.43;6.87;;;;;;;3.44;100.00;101646.53;5262677;28;20037;-66
2023/03/15 08:46:25;;;;;;;8.17;5.83;;;;;;;3.66;100.00;101642.91;5263088;28;20380;-66
2023/03/15 08:48:57;;;;;;;9.52;4.80;;;;;;;3.89;100.00;101656.44;5263865;28;20037;-66
2023/03/15 08:51:29;;;;;;;8.77;4.53;;;;;;;4.01;100.00;101667.13;5263714;28;20036;-66
2023/03/15 08:54:02;;;;;;;;;;;;;;;4.39;99.98;101666.41;5264383;28;20036;-66
2023/03/15 08:56:34;;;;;;;12.02;4.88;;;;;;;4.46;96.60;101663.19;5263676;28;19936;-66
2023/03/15 08:59:07;;;;;;;13.97;4.73;;;;;;;4.82;96.81;101664.09;5263742;28;20037;-66
2023/03/15 09:01:39;;;;;;;7.90;4.90;;;;;;;5.21;93.86;101663.28;5263571;28;20510;-67
2023/03/15 09:04:10;;;;;;;9.15;3.97;;;;;;;5.14;89.15;101662.28;5263102;28;20032;-66
2023/03/15 09:06:41;;;;;;;15.70;11.37;;;;;;;5.61;93.12;101670.22;5263375;28;20487;-67
2023/03/15 09:09:16;;;;;;;8.23;3.97;;;;;;;5.99;88.81;101669.34;5263933;28;20036;-66
2023/03/15 09:11:47;;;;;;;7.57;3.67;;;;;;;6.10;85.88;101670.44;5263224;28;20128;-67
2023/03/15 09:14:19;;;;;;;9.37;4.23;;;;;;;6.34;84.46;101671.72;5263144;28;20112;-67
2023/03/15 09:16:50;;;;;;;7.57;3.27;;;;;;;6.57;80.26;101673.03;5263313;28;20446;-67
2023/03/15 09:19:22;;;;;;;10.95;4.70;;;;;;;6.93;79.82;101671.91;5263266;28;20116;-67
2023/03/15 09:21:53;;;;;;;6.60;3.40;;;;;;;7.40;82.37;101675.22;5264119;28;20036;-66
2023/03/15 09:24:25;;;;;;;8.00;3.70;;;;;;;8.06;81.86;101675.22;5262840;28;20120;-67
2023/03/15 09:26:56;;;;;;;10.27;3.20;;;;;;;8.42;75.81;101679.09;5262617;28;20419;-67
2023/03/15 09:29:28;;;;;;;6.73;3.03;;;;;;;8.27;74.50;101672.88;5263425;28;20029;-67
2023/03/15 09:32:00;;;;;;;5.50;2.33;;;;;;;8.51;68.15;101679.22;5263132;28;20033;-67
2023/03/15 09:34:34;;;;;;;5.28;3.00;;;;;;;8.59;69.71;101677.56;5262497;28;20033;-67
2023/03/15 09:37:06;;;;;;;9.77;3.30;;;;;;;8.45;68.45;101669.63;5263005;28;20021;-66
2023/03/15 09:39:37;;;;;;;8.43;3.23;;;;;;;7.87;71.04;101676.72;5263359;28;20036;-66
2023/03/15 09:42:29;;;;;;;7.43;2.77;;;;;;;7.32;70.59;101669.06;5262982;28;20077;-66
2023/03/15 09:45:30;;;;;;;11.60;3.13;;;;;;;8.49;72.76;101681.81;5263280;28;20082;-66
2023/03/15 09:48:16;;;;;;;7.78;2.42;;;;;;;9.69;64.99;101674.03;5262861;28;20024;-66
2023/03/15 09:51:11;;;;;;;7.05;3.00;;;;;;;10.51;62.97;101680.47;5263297;28;20095;-66
2023/03/15 09:54:04;;;;;;;8.50;2.90;;;;;;;10.92;63.09;101676.16;5262620;28;20029;-66
2023/03/15 09:56:44;;;;;;;7.13;2.67;;;;;;;10.29;59.25;101678.59;5262570;28;20039;-66
2023/03/15 09:59:21;;;;;;;7.97;3.00;;;;;;;9.61;55.03;101687.03;5262887;28;20330;-67
2023/03/15 10:01:55;;;;;;;6.60;2.25;;;;;;;9.56;57.94;101685.25;5262752;28;20037;-66
2023/03/15 10:04:41;;;;;;;9.23;3.08;;;;;;;9.62;56.30;101687.88;5262486;28;20029;-67
2023/03/15 10:07:15;;;;;;;8.63;2.33;;;;;;;10.60;57.93;101686.56;5262751;28;20020;-67
2023/03/15 10:09:46;;;;;;;6.50;3.35;;;;;;;10.71;55.69;101674.41;5262623;28;20461;-67
2023/03/15 10:12:50;;;;;;;12.97;2.93;;;;;;;11.65;56.48;101682.97;5262313;28;20040;-67
2023/03/15 10:15:25;;;;;;;8.73;2.35;;;;;;;11.88;48.48;101686.41;5261773;28;20033;-67
2023/03/15 10:18:26;;;;;;;10.52;3.17;;;;;;;11.19;46.39;101683.09;5262348;28;20118;-67
2023/03/15 10:21:10;;;;;;;9.02;2.28;;;;;;;12.38;48.17;101683.59;5262251;28;20484;-67
2023/03/15 10:23:52;;;;;;;8.32;2.30;;;;;;;13.56;46.01;101678.28;5262586;28;20476;-67
2023/03/15 10:26:28;;;;;;;11.45;2.60;;;;;;;13.33;43.36;101683.75;5262276;28;20452;-66
2023/03/15 10:29:01;;;;;;;8.75;2.38;;;;;;;13.59;42.75;101678.25;5262162;28;20028;-66
2023/03/15 10:31:38;;;;;;;9.48;2.60;;;;;;;13.91;40.49;101678.72;5262171;28;20354;-67
2023/03/15 10:34:12;;;;;;;5.57;2.38;;;;;;;14.00;39.40;101686.50;5262639;28;20029;-67
2023/03/15 10:36:48;;;;;;;11.02;2.88;;;;;;;13.96;37.80;101684.78;5261986;28;20087;-66
2023/03/15 10:39:21;;;;;;;6.40;1.92;;;;;;;14.40;38.10;101680.72;5262036;28;20430;-67
2023/03/15 10:41:52;;;;;;;7.20;2.30;;;;;;;14.87;38.36;101692.25;5262542;28;20049;-66
2023/03/15 10:44:25;;;;;;;3.50;1.57;;;;;;;15.04;35.52;101686.75;5262053;28;20102;-67
2023/03/15 10:47:19;;;;;;;6.65;2.13;;;;;;;16.09;37.89;101694.44;5262059;28;20029;-67
2023/03/15 10:49:57;;;;;;;7.20;1.83;;;;;;;16.91;36.14;101698.72;5261433;28;20029;-67
2023/03/15 10:52:40;;;;;;;4.70;2.25;;;;;;;17.53;35.01;101694.50;5261993;28;20043;-67
2023/03/15 10:55:19;;;;;;;6.25;1.90;;;;;;;17.14;32.00;101706.91;5261802;28;20062;-67
2023/03/15 10:57:54;;;;;;;4.90;1.80;;;;;;;17.34;30.91;101702.91;5261599;28;20057;-67
2023/03/15 11:00:30;;;;;;;5.80;1.77;;;;;;;17.79;29.71;101701.66;5262295;28;20029;-67
2023/03/15 11:03:20;;;;;;;7.90;2.15;;;;;;;18.43;32.52;101714.75;5261839;28;20029;-67
2023/03/15 11:05:54;;;;;;;8.45;1.95;;;;;;;18.50;27.77;101715.44;5261614;28;20039;-67
2023/03/15 11:08:36;;;;;;;5.65;1.77;;;;;;;18.96;29.71;101716.63;5260571;28;20092;-67
2023/03/15 11:11:08;;;;;;;4.28;1.83;;;;;;;17.70;27.30;101708.06;5261651;28;20033;-68
2023/03/15 11:13:41;;;;;;;6.45;1.80;;;;;;;15.60;28.71;101717.25;5261620;28;20029;-67
2023/03/15 11:16:12;;;;;;;4.53;1.52;;;;;;;15.66;28.96;101728.56;5261704;28;20035;-67
2023/03/15 11:19:02;;;;;;;3.90;1.80;;;;;;;15.85;31.72;101725.59;5261871;28;20029;-67
2023/03/15 11:21:35;;;;;;;7.93;1.98;;;;;;;15.61;31.49;101724.25;5261979;28;20398;-67
2023/03/15 11:24:19;;;;;;;6.18;1.90;;;;;;;16.39;30.01;101735.88;5261635;28;20034;-67
2023/03/15 11:26:53;;;;;;;7.47;2.20;;;;;;;16.70;31.31;101737.78;5261556;28;20472;-67
2023/03/15 11:29:27;;;;;;;4.45;1.95;;;;;;;18.07;29.66;101738.72;5261584;28;20357;-67
2023/03/15 11:32:01;;;;;;;4.70;2.13;;;;;;;18.58;28.32;101734.56;5263192;28;20465;-67
2023/03/15 11:34:37;;;;;;;7.63;2.22;;;;;;;19.35;26.72;101731.19;5265317;28;20047;-67
2023/03/15 11:37:18;;;;;;;5.95;1.80;;;;;;;19.41;26.35;101736.28;5265212;28;20039;-68
2023/03/15 11:39:58;;;;;;;5.53;1.70;;;;;;;20.77;26.52;101735.66;5265187;28;20021;-67
2023/03/15 11:42:40;;;;;;;3.85;1.70;;;;;;;20.26;23.82;101730.59;5263301;28;20052;-67
2023/03/15 11:45:34;;;;;;;3.00;1.43;;;;;;;20.52;23.71;101729.56;5265280;28;20123;-67
2023/03/15 11:48:28;;;;;;;6.75;2.03;;;;;;;20.65;24.09;101730.84;5265342;28;20461;-66
2023/03/15 11:51:00;;;;;;;6.85;2.25;;;;;;;20.08;23.86;101729.53;5265319;28;20028;-66
2023/03/15 11:53:37;;;;;;;4.32;1.90;;;;;;;17.91;25.92;101721.59;5264646;28;20041;-66